Tuesday, October 16, 2018, 7:18 PM EDT
Back to Local

KRDG, Reading Regional Airport

Location: Reading, PA, United States Lat: 40.367
Local Time: 7:18 PM EDT (23:18 GMT) Lon: -75.967
Time Zone: US/Eastern Elev: 344 ft

Show me the last for .
Show Decoded

2018-10-16 18:54 METAR KRDG 162254Z 23003KT 10SM CLR 10/04 A3008 RMK AO2 SLP192 T01000039 =
2018-10-16 17:54 METAR KRDG 162154Z 25004KT 10SM CLR 11/04 A3008 RMK AO2 SLP192 T01110039 =
2018-10-16 16:54 METAR KRDG 162054Z 24007KT 10SM CLR 12/03 A3008 RMK AO2 SLP192 T01220028 56015 =
2018-10-16 15:54 METAR KRDG 161954Z AUTO 27008KT 10SM CLR 12/03 A3008 RMK AO2 SLP192 T01220028 =
2018-10-16 14:54 METAR KRDG 161854Z 23010KT 10SM CLR 12/03 A3010 RMK AO2 SLP197 T01220028 =
2018-10-16 13:54 METAR KRDG 161754Z 26010KT 240V320 10SM CLR 13/02 A3013 RMK AO2 SLP207 T01280022
                 10128 20083 58022 =
2018-10-16 12:54 METAR KRDG 161654Z 29010KT 10SM CLR 11/02 A3016 RMK AO2 SLP217 T01110022 =
2018-10-16 11:54 METAR KRDG 161554Z 29010KT 10SM CLR 11/02 A3018 RMK AO2 SLP224 T01110017 =
2018-10-16 10:54 METAR KRDG 161454Z 33011KT 10SM CLR 10/02 A3019 RMK AO2 SLP229 T01000017 50004 =
2018-10-16 09:54 METAR KRDG 161354Z 32011KT 10SM CLR 09/03 A3021 RMK AO2 SLP234 T00940028 =
2018-10-16 08:54 METAR KRDG 161254Z 33008KT 10SM CLR 09/02 A3021 RMK AO2 SLP234 T00890022 =
2018-10-16 07:54 METAR KRDG 161154Z 33008KT 10SM CLR 08/02 A3018 RMK AO2 SLP225 70008 T00830022
                 10128 20078 51023 =
2018-10-16 06:54 METAR KRDG 161054Z 32013G21KT 10SM CLR 09/02 A3016 RMK AO2 SLP218 T00890022 =
2018-10-16 05:54 METAR KRDG 160954Z AUTO 33014KT 10SM CLR 10/03 A3015 RMK AO2 SLP213 T01000028 =
2018-10-16 04:54 METAR KRDG 160854Z AUTO 31008KT 10SM CLR 10/06 A3011 RMK AO2 SLP201 T01000061
                 53017 =
2018-10-16 03:54 METAR KRDG 160754Z AUTO 29011KT 10SM CLR 12/06 A3009 RMK AO2 SLP193 T01170061 =
2018-10-16 02:54 METAR KRDG 160654Z AUTO 30011KT 10SM CLR 12/06 A3007 RMK AO2 SLP188 T01220056 =
2018-10-16 01:54 METAR KRDG 160554Z AUTO 31016G23KT 10SM CLR 13/07 A3006 RMK AO2 PK WND
                 30028/0542 SLP184 60003 T01280067 10189 20128 51031 =
2018-10-16 00:54 METAR KRDG 160454Z AUTO 31015G20KT 10SM FEW034 SCT075 OVC090 14/11 A3003 RMK AO2
                 RAB02E17 SLP173 P0000 T01440106 402000111 =
2018-10-15 23:54 METAR KRDG 160354Z AUTO 29013KT 10SM OVC060 16/11 A3001 RMK AO2 RAE21 SLP167
                 P0000 T01560111 =
2018-10-15 22:54 METAR KRDG 160254Z 30013KT 7SM -RA FEW020 OVC041 17/14 A2997 RMK AO2 RAB0159
                 SLP152 P0000 60003 T01670144 53027 =
2018-10-15 21:54 METAR KRDG 160154Z 28008KT 10SM BKN014 OVC043 18/17 A2994 RMK AO2 RAB08E31
                 SLP142 P0003 T01780167 =
2018-10-15 21:05 METAR KRDG 160105Z 29008KT 10SM BKN014 OVC043 19/18 A2991 RMK AO2 T01890178 =
2018-10-15 20:54 METAR KRDG 160054Z 29008KT 10SM SCT014 19/18 A2991 RMK AO2 SLP132 T01890183 =
2018-10-15 19:54 METAR KRDG 152354Z 21009KT 10SM SCT014 19/18 A2989 RMK AO2 SLP125 60005
                 T01890178 10200 20178 57007 =

Support USWX by starting your Amazon purchase here.